Ye Chi — VRFV6 — position and weather

sailwx.info

Track history (hours):
 
Tides and Currents Weather Stations Pressure Air Temp Water Temp Dewpoint Dewpoint Depression Visibility Wind Speed Wind Dir Waves Ship Positions

Ye Chi

Last reported at 2017-Apr-21 07:42 UTC. Time now 2017-Apr-23 14:00 UTC.
Position N 22°49' E 119°55'.

Length 186 m; draft 11.2 m.

Type: Tanker. MMSI: 477621300.

Date/timePositionNaut miles runAvg speedWind from/ knotsBaromVisibWave heightAir tempDewpointWater temp
2017-Apr-21 07:42N 22°49' E 119°55'212.7
2017-Apr-21 07:30N 22°46' E 119°55'612.1
2017-Apr-21 07:01N 22°40' E 119°56'612.0
2017-Apr-21 06:28N 22°34' E 119°55'711.7
2017-Apr-21 05:54N 22°27' E 119°55'  
2017-Apr-15 16:36N 01°15' E 104°06'110.9
2017-Apr-15 16:30N 01°14' E 104°05'3 6.3
2017-Apr-15 16:00N 01°14' E 104°01'2 4.1
2017-Apr-15 15:30N 01°16' E 104°00'2 3.5
2017-Apr-15 15:00N 01°16' E 103°58'1 1.1
2017-Apr-15 14:30N 01°16' E 103°58'0 0.0
2017-Apr-15 13:29N 01°16' E 103°58'0 0.0
2017-Apr-15 12:59N 01°16' E 103°58'0 0.0
2017-Apr-15 12:29N 01°16' E 103°58'0 0.0
2017-Apr-15 11:59N 01°16' E 103°58'0 0.1
2017-Apr-15 11:29N 01°16' E 103°58'0 0.1
2017-Apr-15 10:53N 01°16' E 103°58'0 0.0
2017-Apr-15 10:17N 01°16' E 103°58'0 0.0
2017-Apr-15 09:59N 01°16' E 103°58'0 0.1
2017-Apr-15 09:23N 01°16' E 103°58'0 0.0
2017-Apr-15 08:47N 01°16' E 103°58'0 0.2
2017-Apr-15 08:29N 01°16' E 103°58'0 0.0
2017-Apr-15 07:59N 01°16' E 103°58'0 0.0
2017-Apr-15 07:29N 01°16' E 103°58'0 0.0
2017-Apr-15 06:50N 01°16' E 103°58'0 0.0
2017-Apr-15 06:29N 01°16' E 103°58'0 0.0
2017-Apr-15 05:56N 01°16' E 103°58'0 0.0
2017-Apr-15 05:29N 01°16' E 103°58'0 0.0
2017-Apr-15 04:56N 01°16' E 103°58'0 0.0
2017-Apr-15 04:26N 01°16' E 103°58'0 0.0
2017-Apr-15 03:59N 01°16' E 103°58'0 0.0
2017-Apr-15 03:29N 01°16' E 103°58'0 0.0
2017-Apr-15 02:59N 01°16' E 103°58'0 0.1
2017-Apr-15 02:30N 01°16' E 103°58'1 2.2
2017-Apr-15 02:00N 01°15' E 103°57'2 3.9
2017-Apr-15 01:30N 01°14' E 103°57'2 5.0
2017-Apr-15 01:00N 01°12' E 103°55'4 7.3
2017-Apr-15 00:30N 01°11' E 103°51'511.0
2017-Apr-15 00:00N 01°08' E 103°46'612.4
2017-Apr-14 23:30N 01°04' E 103°42'610.3
2017-Apr-14 22:57N 01°04' E 103°36'510.9
2017-Apr-14 22:30N 01°07' E 103°32'510.4
2017-Apr-14 22:00N 01°09' E 103°27'610.2
2017-Apr-14 21:27N 01°12' E 103°23'5 9.2
2017-Apr-14 20:57N 01°15' E 103°19'24 9.1
2017-Apr-14 18:21N 01°30' E 103°00'4 9.1
2017-Apr-14 17:55N 01°32' E 102°57'9 9.4
2017-Apr-14 16:59N 01°37' E 102°50'7 9.9
2017-Apr-14 16:19N 01°40' E 102°44'1210.3
2017-Apr-14 15:11N 01°45' E 102°33'210.4
2017-Apr-14 14:59N 01°46' E 102°31'510.2
2017-Apr-14 14:30N 01°48' E 102°27'  
Track history (hours):
 
Tides and Currents Weather Stations Pressure Air Temp Water Temp Dewpoint Dewpoint Depression Visibility Wind Speed Wind Dir Waves Ship Positions

Ye Chi

Last reported at 2017-Apr-21 07:42 UTC. Time now 2017-Apr-23 14:00 UTC.
Position N 22°49' E 119°55'.

Length 186 m; draft 11.2 m.

Type: Tanker. MMSI: 477621300.

Date/timePositionNaut miles runAvg speedWind from/ knotsBaromVisibWave heightAir tempDewpointWater temp
2017-Apr-21 07:42N 22°49' E 119°55'212.7
2017-Apr-21 07:30N 22°46' E 119°55'612.1
2017-Apr-21 07:01N 22°40' E 119°56'612.0
2017-Apr-21 06:28N 22°34' E 119°55'711.7
2017-Apr-21 05:54N 22°27' E 119°55'  
2017-Apr-15 16:36N 01°15' E 104°06'110.9
2017-Apr-15 16:30N 01°14' E 104°05'3 6.3
2017-Apr-15 16:00N 01°14' E 104°01'2 4.1
2017-Apr-15 15:30N 01°16' E 104°00'2 3.5
2017-Apr-15 15:00N 01°16' E 103°58'1 1.1
2017-Apr-15 14:30N 01°16' E 103°58'0 0.0
2017-Apr-15 13:29N 01°16' E 103°58'0 0.0
2017-Apr-15 12:59N 01°16' E 103°58'0 0.0
2017-Apr-15 12:29N 01°16' E 103°58'0 0.0
2017-Apr-15 11:59N 01°16' E 103°58'0 0.1
2017-Apr-15 11:29N 01°16' E 103°58'0 0.1
2017-Apr-15 10:53N 01°16' E 103°58'0 0.0
2017-Apr-15 10:17N 01°16' E 103°58'0 0.0
2017-Apr-15 09:59N 01°16' E 103°58'0 0.1
2017-Apr-15 09:23N 01°16' E 103°58'0 0.0
2017-Apr-15 08:47N 01°16' E 103°58'0 0.2
2017-Apr-15 08:29N 01°16' E 103°58'0 0.0
2017-Apr-15 07:59N 01°16' E 103°58'0 0.0
2017-Apr-15 07:29N 01°16' E 103°58'0 0.0
2017-Apr-15 06:50N 01°16' E 103°58'0 0.0
2017-Apr-15 06:29N 01°16' E 103°58'0 0.0
2017-Apr-15 05:56N 01°16' E 103°58'0 0.0
2017-Apr-15 05:29N 01°16' E 103°58'0 0.0
2017-Apr-15 04:56N 01°16' E 103°58'0 0.0
2017-Apr-15 04:26N 01°16' E 103°58'0 0.0
2017-Apr-15 03:59N 01°16' E 103°58'0 0.0
2017-Apr-15 03:29N 01°16' E 103°58'0 0.0
2017-Apr-15 02:59N 01°16' E 103°58'0 0.1
2017-Apr-15 02:30N 01°16' E 103°58'1 2.2
2017-Apr-15 02:00N 01°15' E 103°57'2 3.9
2017-Apr-15 01:30N 01°14' E 103°57'2 5.0
2017-Apr-15 01:00N 01°12' E 103°55'4 7.3
2017-Apr-15 00:30N 01°11' E 103°51'511.0
2017-Apr-15 00:00N 01°08' E 103°46'612.4
2017-Apr-14 23:30N 01°04' E 103°42'610.3
2017-Apr-14 22:57N 01°04' E 103°36'510.9
2017-Apr-14 22:30N 01°07' E 103°32'510.4
2017-Apr-14 22:00N 01°09' E 103°27'610.2
2017-Apr-14 21:27N 01°12' E 103°23'5 9.2
2017-Apr-14 20:57N 01°15' E 103°19'24 9.1
2017-Apr-14 18:21N 01°30' E 103°00'4 9.1
2017-Apr-14 17:55N 01°32' E 102°57'9 9.4
2017-Apr-14 16:59N 01°37' E 102°50'7 9.9
2017-Apr-14 16:19N 01°40' E 102°44'1210.3
2017-Apr-14 15:11N 01°45' E 102°33'210.4
2017-Apr-14 14:59N 01°46' E 102°31'510.2
2017-Apr-14 14:30N 01°48' E 102°27'  

Dump ship's entire track history